Portada
METAR-TAF:

METAR-TAF

Aeroports :

Victòria, Mahé, Seychelles

latitud: 04-40S, longitud: 055-31E, altitud: 3 m

Observació

L'informe es va fer fa 44 minuts, a les 19:00 UTC
Vent 7 kt amb direcció variable amb ràfegues de 19 kt
Temperatura 26°C
Humitat 79%
Pressió 1013 hPa
Visibilitat 10 km o més
Núvols disperses a una alçada de 2100 ft

METAR: FSIA 181900Z VRB07G19KT 9999 R13///// SCT021 26/22 Q1013 NOSIG

Hora: 23:44 (19:44 UTC)

Pronòstic

L'informe es va fer fa 2 hores i 36 minuts, a les 17:08 UTC
Pronòstic vàlid del 18 a les 18 UTC al 19 a les 18 UTC
Vent 15 kt del Sud amb ràfegues de 25 kt
Visibilitat 10 km o més
Núvols disperses a una alçada de 2000 ft
Cel ennuvolat a una alçada de 6000 ft
Temporalment
l' 19 a les 02 UTC al 19 a les 10 UTC
Escasses núvols a una alçada de 1200 ft
Cel ennuvolat a una alçada de 1800 ft
xàfecs de pluja

TAF: FSIA 181708Z 1818/1918 17015G25KT 9999 SCT020 BKN060 TEMPO 1902/1910 -SHRA FEW012 BKN018

Observacions i pronòstics meteorològics de més de 4000 aeroports (METAR i TAF).

Les estacions disponibles són els punts grocs i vermells al mapa.

Posi el ratolí al punt desitjat per veure el nom de l'estació.

Feu clic per veure les observacions i els pronòstics meteorològics.

Per canviar el mapa: feu clic els botons verds amb una creu de color negre per apropar; al botó verd amb un guió per allunyar la imatge; o en les fletxes verdes per a mapes adjacents.


METAR-TAF: